createdAt,value
2018-12-13T00:00:15.146Z,0
2018-12-13T00:01:15.128Z,0
2018-12-13T00:02:15.107Z,0
2018-12-13T00:03:15.085Z,0
2018-12-13T00:04:15.069Z,0
2018-12-13T00:05:15.051Z,0
2018-12-13T00:06:15.034Z,0
2018-12-13T00:07:14.760Z,0
2018-12-13T00:08:14.986Z,0
2018-12-13T00:09:14.723Z,0
2018-12-13T00:10:14.946Z,0
2018-12-13T00:11:14.928Z,0
2018-12-13T00:12:14.655Z,0
2018-12-13T00:13:14.878Z,0
2018-12-13T00:14:14.877Z,0
2018-12-13T00:15:14.844Z,0
2018-12-13T00:16:14.322Z,0
2018-12-13T00:17:14.807Z,0
2018-12-13T00:18:14.779Z,0
2018-12-13T00:19:14.777Z,0
2018-12-13T00:20:14.495Z,0
2018-12-13T00:21:14.723Z,0
2018-12-13T00:22:14.714Z,0
2018-12-13T00:23:14.685Z,0
2018-12-13T00:24:14.666Z,0
2018-12-13T00:25:14.651Z,0
2018-12-13T00:26:14.389Z,0
2018-12-13T00:27:14.599Z,0
2018-12-13T00:28:14.575Z,0
2018-12-13T00:29:14.558Z,0
2018-12-13T00:30:14.540Z,0
2018-12-13T00:31:14.520Z,0
2018-12-13T00:32:14.502Z,0
2018-12-13T00:33:14.479Z,0
2018-12-13T00:34:14.462Z,0
2018-12-13T00:35:14.193Z,0
2018-12-13T00:36:14.424Z,0
2018-12-13T00:37:14.151Z,0
2018-12-13T00:38:14.388Z,0
2018-12-13T00:39:14.116Z,0
2018-12-13T00:40:14.090Z,0
2018-12-13T00:41:14.066Z,0
2018-12-13T00:42:14.298Z,0
2018-12-13T00:43:14.279Z,0
2018-12-13T00:44:14.007Z,0
2018-12-13T00:45:14.245Z,0
2018-12-13T00:46:14.229Z,0
2018-12-13T00:47:14.349Z,0
2018-12-13T00:48:14.171Z,0
2018-12-13T00:49:14.160Z,0
2018-12-13T00:50:14.135Z,0
2018-12-13T00:51:14.117Z,0
2018-12-13T00:52:14.097Z,0
2018-12-13T00:53:26.823Z,0
2018-12-13T00:54:13.822Z,0
2018-12-13T00:55:14.049Z,0
2018-12-13T00:56:14.035Z,0
2018-12-13T00:57:14.000Z,0
2018-12-13T00:58:14.055Z,0
2018-12-13T00:59:13.961Z,0
2018-12-13T01:00:13.700Z,0
2018-12-13T01:01:13.924Z,0
2018-12-13T01:02:13.655Z,0
2018-12-13T01:03:13.882Z,0
2018-12-13T01:04:13.862Z,0
2018-12-13T01:05:13.592Z,0
2018-12-13T01:06:13.323Z,0
2018-12-13T01:07:13.799Z,0
2018-12-13T01:08:13.782Z,0
2018-12-13T01:09:13.758Z,0
2018-12-13T01:10:13.794Z,0
2018-12-13T01:11:13.535Z,0
2018-12-13T01:12:13.709Z,0
2018-12-13T01:13:13.688Z,0
2018-12-13T01:14:13.659Z,0
2018-12-13T01:15:13.637Z,0
2018-12-13T01:16:13.372Z,0
2018-12-13T01:17:13.597Z,0
2018-12-13T01:18:13.574Z,0
2018-12-13T01:19:13.575Z,0
2018-12-13T01:20:13.537Z,0
2018-12-13T01:21:13.515Z,0
2018-12-13T01:22:13.493Z,0
2018-12-13T01:23:13.474Z,0
2018-12-13T01:24:13.451Z,0
2018-12-13T01:25:13.428Z,0
2018-12-13T01:26:13.410Z,0
2018-12-13T01:27:13.393Z,0
2018-12-13T01:28:13.374Z,0
2018-12-13T01:29:13.361Z,0
2018-12-13T01:30:13.077Z,0
2018-12-13T01:31:13.060Z,0
2018-12-13T01:32:13.280Z,0
2018-12-13T01:33:13.267Z,0
2018-12-13T01:34:13.239Z,0
2018-12-13T01:35:13.214Z,0
2018-12-13T01:36:13.197Z,0
2018-12-13T01:37:13.214Z,0
2018-12-13T01:38:13.159Z,0
2018-12-13T01:39:12.887Z,0
2018-12-13T01:40:12.869Z,0
2018-12-13T01:41:12.849Z,0
2018-12-13T01:42:12.827Z,0
2018-12-13T01:43:13.050Z,0
2018-12-13T01:44:13.034Z,0
2018-12-13T01:45:13.015Z,0
2018-12-13T01:46:12.987Z,0
2018-12-13T01:47:12.971Z,0
2018-12-13T01:48:12.499Z,0
2018-12-13T01:49:12.926Z,0
2018-12-13T01:50:12.906Z,0
2018-12-13T01:51:12.879Z,0
2018-12-13T01:52:12.610Z,0
2018-12-13T01:53:12.840Z,0
2018-12-13T01:54:12.816Z,0
2018-12-13T01:55:12.798Z,0
2018-12-13T01:56:12.524Z,0
2018-12-13T01:57:12.511Z,0
2018-12-13T01:58:12.737Z,0
2018-12-13T01:59:12.709Z,0
2018-12-13T02:00:12.699Z,0
2018-12-13T02:01:12.676Z,0
2018-12-13T02:02:12.648Z,0
2018-12-13T02:03:12.628Z,0
2018-12-13T02:04:12.359Z,0
2018-12-13T02:05:12.590Z,0
2018-12-13T02:06:12.578Z,0
2018-12-13T02:07:12.310Z,0
2018-12-13T02:08:12.521Z,0
2018-12-13T02:09:12.510Z,0
2018-12-13T02:10:12.484Z,0
2018-12-13T02:11:12.453Z,0
2018-12-13T02:12:12.433Z,0
2018-12-13T02:13:12.421Z,0
2018-12-13T02:14:12.390Z,0
2018-12-13T02:15:12.377Z,0
2018-12-13T02:16:12.353Z,0
2018-12-13T02:17:12.328Z,0
2018-12-13T02:18:12.306Z,0
2018-12-13T02:19:12.037Z,0
2018-12-13T02:20:12.274Z,0
2018-12-13T02:21:12.243Z,0
2018-12-13T02:22:11.979Z,0
2018-12-13T02:23:12.214Z,0
2018-12-13T02:24:12.182Z,0
2018-12-13T02:25:11.910Z,0
2018-12-13T02:26:12.137Z,0
2018-12-13T02:27:12.109Z,0
2018-12-13T02:28:12.097Z,0
2018-12-13T02:29:12.073Z,0
2018-12-13T02:30:12.050Z,0
2018-12-13T02:31:12.031Z,0
2018-12-13T02:32:12.025Z,0
2018-12-13T02:33:11.987Z,0
2018-12-13T02:34:11.720Z,0
2018-12-13T02:35:11.954Z,0
2018-12-13T02:36:11.962Z,0
2018-12-13T02:37:13.438Z,0
2018-12-13T02:38:11.886Z,0
2018-12-13T02:39:11.959Z,0
2018-12-13T02:40:11.842Z,0
2018-12-13T02:41:11.816Z,0
2018-12-13T02:42:11.798Z,0
2018-12-13T02:43:11.542Z,0
2018-12-13T02:44:11.749Z,0
2018-12-13T02:45:11.749Z,0
2018-12-13T02:46:11.718Z,0
2018-12-13T02:47:11.699Z,0
2018-12-13T02:48:11.669Z,0
2018-12-13T02:49:11.643Z,0
2018-12-13T02:50:11.619Z,0
2018-12-13T02:51:11.607Z,0
2018-12-13T02:52:11.330Z,0
2018-12-13T02:53:11.550Z,0
2018-12-13T02:54:11.538Z,0
2018-12-13T02:55:11.274Z,0
2018-12-13T02:56:11.498Z,0
2018-12-13T02:57:11.469Z,0
2018-12-13T02:58:11.453Z,0
2018-12-13T02:59:10.926Z,0
2018-12-13T03:00:11.408Z,0
2018-12-13T03:01:11.133Z,0
2018-12-13T03:02:11.358Z,0
2018-12-13T03:03:11.343Z,0
2018-12-13T03:04:11.330Z,0
2018-12-13T03:05:11.051Z,0
2018-12-13T03:06:11.272Z,0
2018-12-13T03:07:18.369Z,0
2018-12-13T03:08:11.249Z,0
2018-12-13T03:09:11.208Z,0
2018-12-13T03:10:11.180Z,0
2018-12-13T03:11:11.231Z,0
2018-12-13T03:12:11.161Z,0
2018-12-13T03:13:10.877Z,0
2018-12-13T03:14:11.103Z,0
2018-12-13T03:15:11.081Z,0
2018-12-13T03:16:11.048Z,0
2018-12-13T03:17:11.036Z,0
2018-12-13T03:18:11.038Z,0
2018-12-13T03:19:10.736Z,0
2018-12-13T03:20:10.978Z,0
2018-12-13T03:21:10.953Z,0
2018-12-13T03:22:10.925Z,0
2018-12-13T03:23:10.902Z,0
2018-12-13T03:24:10.788Z,0
2018-12-13T03:25:10.855Z,0
2018-12-13T03:26:10.848Z,0
2018-12-13T03:27:10.816Z,0
2018-12-13T03:28:10.793Z,0
2018-12-13T03:29:10.796Z,0
2018-12-13T03:30:10.837Z,0
2018-12-13T03:31:10.493Z,0
2018-12-13T03:32:10.733Z,0
2018-12-13T03:33:10.733Z,0
2018-12-13T03:34:10.656Z,0
2018-12-13T03:35:10.385Z,0
2018-12-13T03:36:10.647Z,0
2018-12-13T03:37:10.595Z,0
2018-12-13T03:38:10.569Z,0
2018-12-13T03:39:10.552Z,0
2018-12-13T03:40:10.525Z,0
2018-12-13T03:41:10.255Z,0
2018-12-13T03:42:10.486Z,0
2018-12-13T03:43:09.961Z,0
2018-12-13T03:44:10.444Z,0
2018-12-13T03:45:10.414Z,0
2018-12-13T03:46:10.394Z,0
2018-12-13T03:47:10.366Z,0
2018-12-13T03:48:10.346Z,0
2018-12-13T03:49:10.342Z,0
2018-12-13T03:50:10.310Z,0
2018-12-13T03:51:10.287Z,0
2018-12-13T03:52:10.272Z,0
2018-12-13T03:53:10.252Z,0
2018-12-13T03:54:10.249Z,0
2018-12-13T03:55:10.199Z,0
2018-12-13T03:56:10.172Z,0
2018-12-13T03:57:10.239Z,0
2018-12-13T03:58:10.137Z,0
2018-12-13T03:59:10.113Z,0
2018-12-13T04:00:10.088Z,0
2018-12-13T04:01:10.092Z,0
2018-12-13T04:02:10.048Z,0
2018-12-13T04:03:10.020Z,0
2018-12-13T04:04:09.753Z,0
2018-12-13T04:05:09.974Z,0
2018-12-13T04:06:09.976Z,0
2018-12-13T04:07:09.943Z,0
2018-12-13T04:08:09.670Z,0
2018-12-13T04:09:09.899Z,0
2018-12-13T04:10:09.885Z,0
2018-12-13T04:11:09.591Z,0
2018-12-13T04:12:09.832Z,0
2018-12-13T04:13:09.798Z,0
2018-12-13T04:14:09.793Z,0
2018-12-13T04:15:09.752Z,0
2018-12-13T04:16:09.741Z,0
2018-12-13T04:17:09.458Z,0
2018-12-13T04:18:09.702Z,0
2018-12-13T04:19:09.670Z,0
2018-12-13T04:20:09.393Z,0
2018-12-13T04:21:09.640Z,0
2018-12-13T04:22:09.602Z,0
2018-12-13T04:23:09.596Z,0
2018-12-13T04:24:09.550Z,0
2018-12-13T04:25:09.284Z,0
2018-12-13T04:26:09.504Z,0
2018-12-13T04:27:09.485Z,0
2018-12-13T04:28:09.475Z,0
2018-12-13T04:29:09.448Z,0
2018-12-13T04:30:09.421Z,0
2018-12-13T04:31:09.411Z,0
2018-12-13T04:32:09.438Z,0
2018-12-13T04:33:09.353Z,0
2018-12-13T04:34:09.353Z,0
2018-12-13T04:35:09.058Z,0
2018-12-13T04:36:09.298Z,0
2018-12-13T04:37:09.268Z,0
2018-12-13T04:38:08.992Z,0
2018-12-13T04:39:09.223Z,0
2018-12-13T04:40:09.251Z,0
2018-12-13T04:41:09.177Z,0
2018-12-13T04:42:09.150Z,0
2018-12-13T04:43:09.158Z,0
2018-12-13T04:44:09.106Z,0
2018-12-13T04:45:09.131Z,0
2018-12-13T04:46:09.060Z,0
2018-12-13T04:47:08.790Z,0
2018-12-13T04:48:09.021Z,0
2018-12-13T04:49:08.997Z,0
2018-12-13T04:50:08.881Z,0
2018-12-13T04:51:08.953Z,0
2018-12-13T04:52:08.689Z,0
2018-12-13T04:53:08.908Z,0
2018-12-13T04:54:08.895Z,0
2018-12-13T04:55:08.860Z,0
2018-12-13T04:56:08.834Z,0
2018-12-13T04:57:08.562Z,0
2018-12-13T04:58:08.793Z,0
2018-12-13T04:59:08.768Z,0
2018-12-13T05:00:08.495Z,0
2018-12-13T05:01:08.720Z,0
2018-12-13T05:02:08.708Z,0
2018-12-13T05:03:08.684Z,0
2018-12-13T05:04:08.407Z,0
2018-12-13T05:05:08.638Z,0
2018-12-13T05:06:08.612Z,0
2018-12-13T05:07:08.595Z,0
2018-12-13T05:08:08.565Z,0
2018-12-13T05:09:08.543Z,0
2018-12-13T05:10:08.522Z,0
2018-12-13T05:11:08.495Z,0
2018-12-13T05:12:08.474Z,0
2018-12-13T05:13:08.454Z,0
2018-12-13T05:14:08.429Z,0
2018-12-13T05:15:08.408Z,0
2018-12-13T05:16:08.390Z,0
2018-12-13T05:17:08.371Z,0
2018-12-13T05:18:08.339Z,0
2018-12-13T05:19:08.315Z,0
2018-12-13T05:20:08.297Z,0
2018-12-13T05:21:08.027Z,0
2018-12-13T05:22:08.248Z,0
2018-12-13T05:23:08.229Z,0
2018-12-13T05:24:07.962Z,0
2018-12-13T05:25:08.182Z,0
2018-12-13T05:26:08.167Z,0
2018-12-13T05:27:07.892Z,0
2018-12-13T05:28:08.116Z,0
2018-12-13T05:29:07.866Z,0
2018-12-13T05:30:07.821Z,0
2018-12-13T05:31:09.512Z,0
2018-12-13T05:32:07.786Z,0
2018-12-13T05:33:07.752Z,0
2018-12-13T05:34:08.001Z,0
2018-12-13T05:35:07.961Z,0
2018-12-13T05:36:07.687Z,0
2018-12-13T05:37:07.922Z,0
2018-12-13T05:38:07.638Z,0
2018-12-13T05:39:07.874Z,0
2018-12-13T05:40:07.601Z,0
2018-12-13T05:41:07.884Z,0
2018-12-13T05:42:07.313Z,0
2018-12-13T05:43:07.791Z,0
2018-12-13T05:44:07.764Z,0
2018-12-13T05:45:07.736Z,0
2018-12-13T05:46:07.466Z,0
2018-12-13T05:47:07.697Z,0
2018-12-13T05:48:07.667Z,0
2018-12-13T05:49:07.642Z,0
2018-12-13T05:50:07.627Z,0
2018-12-13T05:51:07.596Z,0
2018-12-13T05:52:07.397Z,0
2018-12-13T05:53:07.553Z,0
2018-12-13T05:54:07.526Z,0
2018-12-13T05:55:08.508Z,0
2018-12-13T05:56:07.486Z,0
2018-12-13T05:57:07.508Z,0
2018-12-13T05:58:07.445Z,0
2018-12-13T05:59:07.172Z,0
2018-12-13T06:00:07.399Z,0
2018-12-13T06:01:07.372Z,0
2018-12-13T06:02:07.350Z,0
2018-12-13T06:03:07.076Z,0
2018-12-13T06:04:07.308Z,0
2018-12-13T06:05:07.324Z,0
2018-12-13T06:06:07.258Z,0
2018-12-13T06:07:06.990Z,0
2018-12-13T06:08:07.210Z,0
2018-12-13T06:09:07.194Z,0
2018-12-13T06:10:06.920Z,0
2018-12-13T06:11:07.150Z,0
2018-12-13T06:12:07.134Z,0
2018-12-13T06:13:07.110Z,0
2018-12-13T06:14:07.087Z,0
2018-12-13T06:15:07.056Z,0
2018-12-13T06:16:07.039Z,0
2018-12-13T06:17:07.008Z,0
2018-12-13T06:18:11.704Z,0
2018-12-13T06:19:06.975Z,0
2018-12-13T06:20:06.937Z,0
2018-12-13T06:21:11.795Z,0
2018-12-13T06:22:06.896Z,0
2018-12-13T06:23:06.891Z,0
2018-12-13T06:24:06.853Z,0
2018-12-13T06:25:06.841Z,0
2018-12-13T06:26:06.811Z,0
2018-12-13T06:27:06.792Z,4
2018-12-13T06:28:06.762Z,0
2018-12-13T06:29:06.737Z,0
2018-12-13T06:30:12.143Z,4
2018-12-13T06:31:06.446Z,4
2018-12-13T06:32:06.665Z,4
2018-12-13T06:33:06.650Z,4
2018-12-13T06:34:06.625Z,4
2018-12-13T06:35:06.602Z,4
2018-12-13T06:36:06.576Z,8
2018-12-13T06:37:06.310Z,8
2018-12-13T06:38:08.611Z,12
2018-12-13T06:39:06.508Z,12
2018-12-13T06:40:06.234Z,12
2018-12-13T06:41:06.462Z,16
2018-12-13T06:42:06.439Z,20
2018-12-13T06:43:06.421Z,24
2018-12-13T06:44:06.151Z,28
2018-12-13T06:45:06.381Z,28
2018-12-13T06:46:06.201Z,36
2018-12-13T06:47:06.336Z,40
2018-12-13T06:48:06.063Z,44
2018-12-13T06:49:06.280Z,52
2018-12-13T06:50:06.262Z,56
2018-12-13T06:51:06.228Z,64
2018-12-13T06:52:05.971Z,72
2018-12-13T06:53:05.691Z,80
2018-12-13T06:54:06.176Z,88
2018-12-13T06:55:06.142Z,96
2018-12-13T06:56:05.874Z,108
2018-12-13T06:57:06.101Z,120
2018-12-13T06:58:06.079Z,136
2018-12-13T06:59:06.060Z,148
2018-12-13T07:00:06.040Z,160
2018-12-13T07:01:06.064Z,176
2018-12-13T07:02:05.995Z,192
2018-12-13T07:03:05.959Z,204
2018-12-13T07:04:05.939Z,220
2018-12-13T07:05:05.421Z,232
2018-12-13T07:06:05.897Z,244
2018-12-13T07:07:05.684Z,264
2018-12-13T07:08:12.250Z,284
2018-12-13T07:09:05.819Z,296
2018-12-13T07:10:05.807Z,316
2018-12-13T07:11:05.777Z,340
2018-12-13T07:12:05.760Z,360
2018-12-13T07:13:05.486Z,376
2018-12-13T07:14:06.412Z,392
2018-12-13T07:15:05.691Z,412
2018-12-13T07:16:05.673Z,432
2018-12-13T07:17:05.398Z,456
2018-12-13T07:18:05.620Z,476
2018-12-13T07:19:05.594Z,504
2018-12-13T07:20:05.572Z,528
2018-12-13T07:21:05.309Z,548
2018-12-13T07:22:05.542Z,576
2018-12-13T07:23:05.515Z,604
2018-12-13T07:24:05.235Z,624
2018-12-13T07:25:05.221Z,652
2018-12-13T07:26:05.442Z,672
2018-12-13T07:27:05.168Z,700
2018-12-13T07:28:05.389Z,724
2018-12-13T07:29:05.435Z,748
2018-12-13T07:30:05.099Z,776
2018-12-13T07:31:05.084Z,800
2018-12-13T07:32:05.297Z,832
2018-12-13T07:33:05.083Z,860
2018-12-13T07:34:05.315Z,880
2018-12-13T07:35:08.489Z,904
2018-12-13T07:36:05.205Z,924
2018-12-13T07:37:05.183Z,940
2018-12-13T07:38:04.918Z,960
2018-12-13T07:39:04.990Z,976
2018-12-13T07:40:04.877Z,992
2018-12-13T07:41:05.099Z,1008
2018-12-13T07:42:04.828Z,1028
2018-12-13T07:43:05.049Z,1052
2018-12-13T07:44:05.021Z,1072
2018-12-13T07:45:04.757Z,1088
2018-12-13T07:46:04.983Z,1112
2018-12-13T07:47:04.963Z,1136
2018-12-13T07:48:04.935Z,1156
2018-12-13T07:49:04.934Z,1176
2018-12-13T07:50:04.887Z,1192
2018-12-13T07:51:04.999Z,1208
2018-12-13T07:52:04.856Z,1224
2018-12-13T07:53:04.834Z,1244
2018-12-13T07:54:04.800Z,1260
2018-12-13T07:55:04.526Z,1280
2018-12-13T07:56:04.761Z,1292
2018-12-13T07:57:04.732Z,1312
2018-12-13T07:58:04.713Z,1340
2018-12-13T07:59:04.444Z,1364
2018-12-13T08:00:04.672Z,1380
2018-12-13T08:01:04.638Z,1392
2018-12-13T08:02:04.620Z,1400
2018-12-13T08:03:04.593Z,1420
2018-12-13T08:04:04.572Z,1432
2018-12-13T08:05:04.550Z,1448
2018-12-13T08:06:04.280Z,1464
2018-12-13T08:07:04.517Z,1480
2018-12-13T08:08:04.581Z,1496
2018-12-13T08:09:04.465Z,1512
2018-12-13T08:10:04.443Z,1520
2018-12-13T08:11:04.413Z,1536
2018-12-13T08:12:04.143Z,1548
2018-12-13T08:13:04.367Z,1552
2018-12-13T08:14:04.344Z,1564
2018-12-13T08:15:04.320Z,1596
2018-12-13T08:16:04.053Z,1600
2018-12-13T08:17:04.276Z,1616
2018-12-13T08:18:04.256Z,1624
2018-12-13T08:19:03.982Z,1632
2018-12-13T08:20:04.203Z,1640
2018-12-13T08:21:04.181Z,1648
2018-12-13T08:22:03.917Z,1660
2018-12-13T08:23:04.400Z,1672
2018-12-13T08:24:04.115Z,1684
2018-12-13T08:25:04.095Z,1696
2018-12-13T08:26:04.083Z,1696
2018-12-13T08:27:04.046Z,1700
2018-12-13T08:28:04.417Z,1704
2018-12-13T08:29:03.770Z,1716
2018-12-13T08:30:03.999Z,1728
2018-12-13T08:31:03.989Z,1728
2018-12-13T08:32:03.689Z,1740
2018-12-13T08:33:03.911Z,1744
2018-12-13T08:34:03.901Z,1752
2018-12-13T08:35:03.890Z,1760
2018-12-13T08:36:03.848Z,1776
2018-12-13T08:37:03.582Z,1796
2018-12-13T08:38:03.805Z,1804
2018-12-13T08:39:03.776Z,1812
2018-12-13T08:40:03.776Z,1820
2018-12-13T08:41:03.758Z,1832
2018-12-13T08:42:03.217Z,1848
2018-12-13T08:43:03.690Z,1856
2018-12-13T08:44:03.420Z,1868
2018-12-13T08:45:03.645Z,1872
2018-12-13T08:46:03.626Z,1880
2018-12-13T08:47:03.596Z,1892
2018-12-13T08:48:03.585Z,1892
2018-12-13T08:49:03.574Z,1900
2018-12-13T08:50:03.293Z,1904
2018-12-13T08:51:03.513Z,1908
2018-12-13T08:52:03.498Z,1920
2018-12-13T08:53:03.473Z,1932
2018-12-13T08:54:03.451Z,1944
2018-12-13T08:55:03.173Z,1948
2018-12-13T08:56:03.402Z,1964
2018-12-13T08:57:03.374Z,1964
2018-12-13T08:58:03.356Z,1972
2018-12-13T08:59:03.083Z,1984
2018-12-13T09:00:03.311Z,1992
2018-12-13T09:01:03.037Z,2000
2018-12-13T09:02:03.268Z,2012
2018-12-13T09:03:03.252Z,2032
2018-12-13T09:04:03.226Z,2044
2018-12-13T09:05:02.953Z,2048
2018-12-13T09:06:03.175Z,2060
2018-12-13T09:07:04.232Z,2072
2018-12-13T09:08:03.180Z,2080
2018-12-13T09:09:03.163Z,2088
2018-12-13T09:10:03.157Z,2092
2018-12-13T09:11:03.068Z,2088
2018-12-13T09:12:03.046Z,2092
2018-12-13T09:13:03.027Z,2096
2018-12-13T09:14:03.293Z,2104
2018-12-13T09:15:02.989Z,2112
2018-12-13T09:16:02.712Z,2112
2018-12-13T09:17:02.683Z,2116
2018-12-13T09:18:02.913Z,2120
2018-12-13T09:19:02.891Z,2128
2018-12-13T09:20:02.872Z,2136
2018-12-13T09:21:02.842Z,2144
2018-12-13T09:22:02.831Z,2140
2018-12-13T09:23:02.804Z,2148
2018-12-13T09:24:02.784Z,2156
2018-12-13T09:25:02.756Z,2164
2018-12-13T09:26:02.485Z,2168
2018-12-13T09:27:02.712Z,2172
2018-12-13T09:28:02.693Z,2176
2018-12-13T09:29:02.668Z,2180
2018-12-13T09:30:02.636Z,2180
2018-12-13T09:31:02.620Z,2184
2018-12-13T09:32:02.353Z,2192
2018-12-13T09:33:02.332Z,2196
2018-12-13T09:34:02.306Z,2200
2018-12-13T09:35:02.538Z,2212
2018-12-13T09:36:02.513Z,2220
2018-12-13T09:37:02.493Z,2220
2018-12-13T09:38:02.469Z,2224
2018-12-13T09:39:02.444Z,2240
2018-12-13T09:40:02.422Z,2248
2018-12-13T09:41:02.154Z,2256
2018-12-13T09:42:02.131Z,2268
2018-12-13T09:43:02.368Z,2276
2018-12-13T09:44:02.088Z,2280
2018-12-13T09:45:02.331Z,2288
2018-12-13T09:46:02.296Z,2296
2018-12-13T09:47:02.272Z,2308
2018-12-13T09:48:02.002Z,2312
2018-12-13T09:49:01.983Z,2316
2018-12-13T09:50:02.204Z,2320
2018-12-13T09:51:01.935Z,2320
2018-12-13T09:52:02.168Z,2328
2018-12-13T09:53:02.151Z,2340
2018-12-13T09:54:03.608Z,2348
2018-12-13T09:55:07.980Z,2348
2018-12-13T09:56:02.075Z,2360
2018-12-13T09:57:02.050Z,2372
2018-12-13T09:58:02.028Z,2388
2018-12-13T09:59:02.010Z,2404
2018-12-13T10:00:01.999Z,2424
2018-12-13T10:01:01.965Z,2444
2018-12-13T10:02:01.956Z,2460
2018-12-13T10:03:01.931Z,2464
2018-12-13T10:04:01.656Z,2476
2018-12-13T10:05:01.958Z,2484
2018-12-13T10:06:01.859Z,2496
2018-12-13T10:07:01.844Z,2516
2018-12-13T10:08:01.814Z,2540
2018-12-13T10:09:01.793Z,2560
2018-12-13T10:10:01.524Z,2584
2018-12-13T10:11:01.753Z,2584
2018-12-13T10:12:01.733Z,2592
2018-12-13T10:13:01.773Z,2604
2018-12-13T10:14:01.692Z,2608
2018-12-13T10:15:01.668Z,2624
2018-12-13T10:16:01.663Z,2652
2018-12-13T10:17:01.630Z,2672
2018-12-13T10:18:01.611Z,2676
2018-12-13T10:19:01.582Z,2712
2018-12-13T10:20:01.564Z,2748
2018-12-13T10:21:01.544Z,2760
2018-12-13T10:22:01.526Z,2816
2018-12-13T10:23:01.503Z,2852
2018-12-13T10:24:01.236Z,2868
2018-12-13T10:25:01.459Z,2896
2018-12-13T10:26:06.739Z,2900
2018-12-13T10:27:01.174Z,2896
2018-12-13T10:28:01.150Z,2900
2018-12-13T10:29:01.124Z,2900
2018-12-13T10:30:01.362Z,2892
2018-12-13T10:31:01.089Z,2888
2018-12-13T10:32:01.065Z,2884
2018-12-13T10:33:01.290Z,2868
2018-12-13T10:34:01.279Z,2860
2018-12-13T10:35:01.249Z,2848
2018-12-13T10:36:01.223Z,2848
2018-12-13T10:37:01.219Z,2856
2018-12-13T10:38:01.188Z,2852
2018-12-13T10:39:01.161Z,2844
2018-12-13T10:40:01.141Z,2824
2018-12-13T10:41:01.142Z,2816
2018-12-13T10:42:01.112Z,2808
2018-12-13T10:43:01.085Z,2808
2018-12-13T10:44:01.088Z,2804
2018-12-13T10:45:01.040Z,2788
2018-12-13T10:46:01.018Z,2796
2018-12-13T10:47:01.423Z,2800
2018-12-13T10:48:00.973Z,2728
2018-12-13T10:49:00.958Z,2760
2018-12-13T10:50:00.688Z,2744
2018-12-13T10:51:00.914Z,2584
2018-12-13T10:52:00.649Z,2868
2018-12-13T10:53:00.876Z,2908
2018-12-13T10:54:00.850Z,2772
2018-12-13T10:55:00.830Z,2804
2018-12-13T10:56:00.810Z,2808
2018-12-13T10:57:00.793Z,2728
2018-12-13T10:58:00.768Z,2720
2018-12-13T10:59:00.745Z,2704
2018-12-13T11:00:00.728Z,2700
2018-12-13T11:01:00.702Z,2716
2018-12-13T11:02:00.684Z,2692
2018-12-13T11:03:00.662Z,2612
2018-12-13T11:04:00.643Z,2512
2018-12-13T11:05:00.619Z,2472
2018-12-13T11:06:00.359Z,2516
2018-12-13T11:07:00.331Z,2788
2018-12-13T11:08:00.561Z,3380
2018-12-13T11:09:06.306Z,4656
2018-12-13T11:10:00.527Z,5348
2018-12-13T11:11:00.497Z,5896
2018-12-13T11:12:00.231Z,6340
2018-12-13T11:13:00.467Z,7396
2018-12-13T11:14:00.448Z,8292
2018-12-13T11:15:00.427Z,8276
2018-12-13T11:16:00.398Z,8060
2018-12-13T11:17:00.383Z,7980
2018-12-13T11:18:00.362Z,8292
2018-12-13T11:19:00.343Z,8940
2018-12-13T11:20:00.320Z,9388
2018-12-13T11:21:00.297Z,9620
2018-12-13T11:22:00.038Z,9664
2018-12-13T11:23:00.252Z,9056
2018-12-13T11:24:00.240Z,8136
2018-12-13T11:25:00.223Z,7956
2018-12-13T11:25:59.956Z,8092
2018-12-13T11:27:00.180Z,7792
2018-12-13T11:28:00.162Z,7028
2018-12-13T11:29:00.861Z,6160
2018-12-13T11:29:59.875Z,5560
2018-12-13T11:30:59.850Z,5116
2018-12-13T11:32:00.094Z,4888
2018-12-13T11:33:00.069Z,4868
2018-12-13T11:34:00.053Z,4196
2018-12-13T11:35:00.029Z,4028
2018-12-13T11:36:00.005Z,3836
2018-12-13T11:37:00.055Z,3744
2018-12-13T11:37:59.972Z,3692
2018-12-13T11:39:05.483Z,3564
2018-12-13T11:39:59.933Z,4232
2018-12-13T11:40:59.913Z,4268
2018-12-13T11:41:59.888Z,4376
2018-12-13T11:42:59.873Z,4672
2018-12-13T11:43:59.851Z,5060
2018-12-13T11:44:59.840Z,5220
2018-12-13T11:45:59.812Z,5152
2018-12-13T11:46:59.804Z,5272
2018-12-13T11:47:59.530Z,5436
2018-12-13T11:48:59.758Z,5440
2018-12-13T11:49:59.739Z,5272
2018-12-13T11:50:59.726Z,5088
2018-12-13T11:51:59.702Z,5224
2018-12-13T11:52:59.681Z,5312
2018-12-13T11:53:59.655Z,5028
2018-12-13T11:54:59.643Z,4516
2018-12-13T11:55:59.620Z,3800
2018-12-13T11:56:59.605Z,3456
2018-12-13T11:57:59.592Z,3344
2018-12-13T11:58:59.568Z,3296
2018-12-13T11:59:59.296Z,3180
2018-12-13T12:00:59.532Z,3204
2018-12-13T12:01:59.256Z,3376
2018-12-13T12:02:59.329Z,3360
2018-12-13T12:03:59.465Z,3400
2018-12-13T12:04:59.466Z,3952
2018-12-13T12:05:59.441Z,4460
2018-12-13T12:06:59.407Z,4600
2018-12-13T12:07:59.391Z,5040
2018-12-13T12:08:59.370Z,4960
2018-12-13T12:10:00.236Z,4808
2018-12-13T12:10:59.093Z,4976
2018-12-13T12:11:59.065Z,4684
2018-12-13T12:12:59.301Z,4256
2018-12-13T12:13:59.285Z,3908
2018-12-13T12:14:59.255Z,3788
2018-12-13T12:15:59.241Z,3756
2018-12-13T12:16:59.218Z,3396
2018-12-13T12:17:59.199Z,3204
2018-12-13T12:18:59.180Z,3396
2018-12-13T12:19:59.166Z,3792
2018-12-13T12:20:59.140Z,3748
2018-12-13T12:21:58.872Z,3576
2018-12-13T12:22:59.122Z,3672
2018-12-13T12:23:59.123Z,3796
2018-12-13T12:24:59.062Z,3924
2018-12-13T12:25:59.039Z,3888
2018-12-13T12:26:58.779Z,3936
2018-12-13T12:27:59.006Z,3604
2018-12-13T12:28:58.736Z,3432
2018-12-13T12:29:58.973Z,3284
2018-12-13T12:30:58.943Z,3084
2018-12-13T12:31:58.928Z,3224
2018-12-13T12:32:58.669Z,3188
2018-12-13T12:33:58.890Z,3172
2018-12-13T12:34:58.865Z,3228
2018-12-13T12:35:58.915Z,3240
2018-12-13T12:36:58.584Z,3392
2018-12-13T12:37:58.803Z,3468
2018-12-13T12:38:58.794Z,3360
2018-12-13T12:39:58.801Z,3340
2018-12-13T12:40:58.503Z,3696
2018-12-13T12:41:58.745Z,4120
2018-12-13T12:42:58.712Z,4524
2018-12-13T12:43:58.441Z,4916
2018-12-13T12:44:58.427Z,4892
2018-12-13T12:45:58.654Z,4952
2018-12-13T12:46:58.634Z,4704
2018-12-13T12:47:58.612Z,4492
2018-12-13T12:48:58.601Z,4188
2018-12-13T12:49:58.575Z,3728
2018-12-13T12:50:58.584Z,3216
2018-12-13T12:51:58.303Z,3252
2018-12-13T12:52:58.533Z,3384
2018-12-13T12:53:58.502Z,3832
2018-12-13T12:54:58.480Z,4004
2018-12-13T12:55:58.457Z,4288
2018-12-13T12:56:58.442Z,4528
2018-12-13T12:57:58.423Z,4704
2018-12-13T12:58:58.397Z,4872
2018-12-13T12:59:58.377Z,4696
2018-12-13T13:00:58.379Z,4580
2018-12-13T13:01:58.340Z,4304
2018-12-13T13:02:58.327Z,3780
2018-12-13T13:03:58.305Z,3460
2018-12-13T13:04:58.292Z,3708
2018-12-13T13:05:58.018Z,3572
2018-12-13T13:06:58.016Z,3604
2018-12-13T13:07:58.241Z,3680
2018-12-13T13:08:58.211Z,3488
2018-12-13T13:09:58.191Z,3208
2018-12-13T13:10:58.230Z,3340
2018-12-13T13:11:58.164Z,3244
2018-12-13T13:12:58.131Z,3084
2018-12-13T13:13:58.112Z,2928
2018-12-13T13:14:57.852Z,2692
2018-12-13T13:15:58.081Z,2588
2018-12-13T13:16:58.052Z,2716
2018-12-13T13:17:58.043Z,2752
2018-12-13T13:18:58.016Z,2684
2018-12-13T13:19:57.750Z,2708
2018-12-13T13:20:57.744Z,2672
2018-12-13T13:21:57.970Z,2608
2018-12-13T13:22:57.689Z,2572
2018-12-13T13:23:57.670Z,2600
2018-12-13T13:24:57.899Z,2660
2018-12-13T13:25:57.890Z,2612
2018-12-13T13:26:57.897Z,2568
2018-12-13T13:27:57.891Z,2436
2018-12-13T13:28:57.820Z,2532
2018-12-13T13:29:57.553Z,2432
2018-12-13T13:30:57.785Z,2232
2018-12-13T13:31:57.769Z,2168
2018-12-13T13:32:57.748Z,2016
2018-12-13T13:33:57.734Z,1952
2018-12-13T13:34:57.716Z,2020
2018-12-13T13:35:57.694Z,1952
2018-12-13T13:36:57.417Z,2204
2018-12-13T13:37:57.402Z,2328
2018-12-13T13:38:57.641Z,2268
2018-12-13T13:39:57.608Z,2136
2018-12-13T13:40:57.588Z,1972
2018-12-13T13:41:57.569Z,1968
2018-12-13T13:42:57.550Z,1924
2018-12-13T13:43:57.279Z,1880
2018-12-13T13:44:57.514Z,1764
2018-12-13T13:45:57.491Z,1704
2018-12-13T13:46:57.645Z,1672
2018-12-13T13:47:57.202Z,1664
2018-12-13T13:48:57.186Z,1672
2018-12-13T13:49:57.410Z,1792
2018-12-13T13:50:57.445Z,1912
2018-12-13T13:51:57.370Z,1964
2018-12-13T13:52:57.353Z,1876
2018-12-13T13:53:57.335Z,1740
2018-12-13T13:54:57.314Z,1680
2018-12-13T13:55:57.291Z,1628
2018-12-13T13:56:57.273Z,1556
2018-12-13T13:57:57.001Z,1528
2018-12-13T13:58:57.227Z,1480
2018-12-13T13:59:56.962Z,1468